sensor_id;sensor_type;location;lat;lon;timestamp;P1;durP1;ratioP1;P2;durP2;ratioP2
22634;SDS011;11484;50.858;4.384;2023-04-03T00:00:24;9.77;;;5.82;;
22634;SDS011;11484;50.858;4.384;2023-04-03T00:02:49;8.95;;;4.82;;
22634;SDS011;11484;50.858;4.384;2023-04-03T00:05:15;10.27;;;5.18;;
22634;SDS011;11484;50.858;4.384;2023-04-03T00:07:41;7.10;;;4.90;;
22634;SDS011;11484;50.858;4.384;2023-04-03T00:10:07;7.95;;;5.28;;
22634;SDS011;11484;50.858;4.384;2023-04-03T00:12:33;8.48;;;5.47;;
22634;SDS011;11484;50.858;4.384;2023-04-03T00:14:59;6.97;;;5.20;;
22634;SDS011;11484;50.858;4.384;2023-04-03T00:17:25;5.03;;;4.43;;
22634;SDS011;11484;50.858;4.384;2023-04-03T00:19:50;7.78;;;4.75;;
22634;SDS011;11484;50.858;4.384;2023-04-03T00:22:18;8.00;;;5.03;;
22634;SDS011;11484;50.858;4.384;2023-04-03T00:24:44;5.28;;;4.43;;
22634;SDS011;11484;50.858;4.384;2023-04-03T00:27:10;7.07;;;4.95;;
22634;SDS011;11484;50.858;4.384;2023-04-03T00:29:38;7.80;;;5.03;;
22634;SDS011;11484;50.858;4.384;2023-04-03T00:32:04;6.47;;;5.35;;
22634;SDS011;11484;50.858;4.384;2023-04-03T00:34:30;7.53;;;5.22;;
22634;SDS011;11484;50.858;4.384;2023-04-03T00:36:58;7.47;;;4.78;;
22634;SDS011;11484;50.858;4.384;2023-04-03T00:39:24;6.20;;;4.45;;
22634;SDS011;11484;50.858;4.384;2023-04-03T00:41:49;7.43;;;4.80;;
22634;SDS011;11484;50.858;4.384;2023-04-03T00:44:22;7.78;;;5.03;;
22634;SDS011;11484;50.858;4.384;2023-04-03T00:47:08;9.73;;;4.53;;
22634;SDS011;11484;50.858;4.384;2023-04-03T00:49:36;9.02;;;5.00;;
22634;SDS011;11484;50.858;4.384;2023-04-03T00:52:03;5.47;;;4.40;;
22634;SDS011;11484;50.858;4.384;2023-04-03T00:54:31;9.63;;;4.70;;
22634;SDS011;11484;50.858;4.384;2023-04-03T00:56:59;8.25;;;4.90;;
22634;SDS011;11484;50.858;4.384;2023-04-03T00:59:27;6.05;;;4.05;;
22634;SDS011;11484;50.858;4.384;2023-04-03T01:01:56;7.03;;;5.20;;
22634;SDS011;11484;50.858;4.384;2023-04-03T01:04:37;6.63;;;4.80;;
22634;SDS011;11484;50.858;4.384;2023-04-03T01:07:06;6.55;;;4.78;;
22634;SDS011;11484;50.858;4.384;2023-04-03T01:09:47;6.57;;;4.43;;
22634;SDS011;11484;50.858;4.384;2023-04-03T01:12:27;6.50;;;4.55;;
22634;SDS011;11484;50.858;4.384;2023-04-03T01:14:57;6.85;;;5.03;;
22634;SDS011;11484;50.858;4.384;2023-04-03T01:23:21;6.53;;;5.38;;
22634;SDS011;11484;50.858;4.384;2023-04-03T01:25:53;7.50;;;4.63;;
22634;SDS011;11484;50.858;4.384;2023-04-03T01:28:32;9.52;;;5.22;;
22634;SDS011;11484;50.858;4.384;2023-04-03T01:31:19;6.90;;;4.68;;
22634;SDS011;11484;50.858;4.384;2023-04-03T01:36:26;5.90;;;4.55;;
22634;SDS011;11484;50.858;4.384;2023-04-03T01:38:53;8.20;;;5.45;;
22634;SDS011;11484;50.858;4.384;2023-04-03T01:41:20;8.48;;;4.90;;
22634;SDS011;11484;50.858;4.384;2023-04-03T01:43:48;5.93;;;4.63;;
22634;SDS011;11484;50.858;4.384;2023-04-03T01:46:15;6.60;;;4.28;;
22634;SDS011;11484;50.858;4.384;2023-04-03T01:48:42;7.78;;;4.85;;
22634;SDS011;11484;50.858;4.384;2023-04-03T01:51:08;7.57;;;4.97;;
22634;SDS011;11484;50.858;4.384;2023-04-03T01:53:36;9.57;;;5.28;;
22634;SDS011;11484;50.858;4.384;2023-04-03T01:56:02;6.13;;;4.57;;
22634;SDS011;11484;50.858;4.384;2023-04-03T01:58:29;6.57;;;4.70;;
22634;SDS011;11484;50.858;4.384;2023-04-03T02:00:55;7.72;;;4.45;;
22634;SDS011;11484;50.858;4.384;2023-04-03T02:03:20;6.32;;;4.63;;
22634;SDS011;11484;50.858;4.384;2023-04-03T02:05:46;7.30;;;4.50;;
22634;SDS011;11484;50.858;4.384;2023-04-03T02:08:12;7.32;;;4.47;;
22634;SDS011;11484;50.858;4.384;2023-04-03T02:10:39;5.82;;;4.80;;
22634;SDS011;11484;50.858;4.384;2023-04-03T02:13:05;5.85;;;4.68;;
22634;SDS011;11484;50.858;4.384;2023-04-03T02:15:31;5.88;;;4.50;;
22634;SDS011;11484;50.858;4.384;2023-04-03T02:17:57;7.45;;;4.97;;
22634;SDS011;11484;50.858;4.384;2023-04-03T02:20:22;8.48;;;5.20;;
22634;SDS011;11484;50.858;4.384;2023-04-03T02:22:48;7.07;;;4.80;;
22634;SDS011;11484;50.858;4.384;2023-04-03T02:25:14;8.90;;;5.22;;
22634;SDS011;11484;50.858;4.384;2023-04-03T02:27:39;8.57;;;4.97;;
22634;SDS011;11484;50.858;4.384;2023-04-03T02:30:05;5.28;;;4.55;;
22634;SDS011;11484;50.858;4.384;2023-04-03T02:32:31;8.23;;;5.18;;
22634;SDS011;11484;50.858;4.384;2023-04-03T02:34:57;8.80;;;5.07;;
22634;SDS011;11484;50.858;4.384;2023-04-03T02:37:23;7.25;;;4.57;;
22634;SDS011;11484;50.858;4.384;2023-04-03T02:39:49;9.70;;;4.55;;
22634;SDS011;11484;50.858;4.384;2023-04-03T02:42:15;7.25;;;4.85;;
22634;SDS011;11484;50.858;4.384;2023-04-03T02:44:41;9.15;;;4.70;;
22634;SDS011;11484;50.858;4.384;2023-04-03T02:47:06;5.22;;;4.50;;
22634;SDS011;11484;50.858;4.384;2023-04-03T02:49:32;8.15;;;5.15;;
22634;SDS011;11484;50.858;4.384;2023-04-03T02:51:58;8.05;;;4.95;;
22634;SDS011;11484;50.858;4.384;2023-04-03T02:54:23;5.68;;;4.95;;
22634;SDS011;11484;50.858;4.384;2023-04-03T02:56:52;7.32;;;4.95;;
22634;SDS011;11484;50.858;4.384;2023-04-03T02:59:19;8.18;;;4.85;;
22634;SDS011;11484;50.858;4.384;2023-04-03T03:01:45;7.97;;;5.05;;
22634;SDS011;11484;50.858;4.384;2023-04-03T03:04:11;8.52;;;5.28;;
22634;SDS011;11484;50.858;4.384;2023-04-03T03:06:37;8.73;;;5.30;;
22634;SDS011;11484;50.858;4.384;2023-04-03T03:09:03;7.78;;;4.85;;
22634;SDS011;11484;50.858;4.384;2023-04-03T03:11:29;6.35;;;4.60;;
22634;SDS011;11484;50.858;4.384;2023-04-03T03:13:55;6.57;;;4.80;;
22634;SDS011;11484;50.858;4.384;2023-04-03T03:16:21;7.65;;;4.78;;
22634;SDS011;11484;50.858;4.384;2023-04-03T03:18:47;6.22;;;4.72;;
22634;SDS011;11484;50.858;4.384;2023-04-03T03:21:13;8.30;;;5.43;;
22634;SDS011;11484;50.858;4.384;2023-04-03T03:23:39;7.10;;;5.03;;
22634;SDS011;11484;50.858;4.384;2023-04-03T03:26:09;7.50;;;5.13;;
22634;SDS011;11484;50.858;4.384;2023-04-03T03:28:36;8.57;;;4.80;;
22634;SDS011;11484;50.858;4.384;2023-04-03T03:31:03;8.05;;;5.65;;
22634;SDS011;11484;50.858;4.384;2023-04-03T03:33:30;8.85;;;5.15;;
22634;SDS011;11484;50.858;4.384;2023-04-03T03:35:56;8.50;;;5.53;;
22634;SDS011;11484;50.858;4.384;2023-04-03T03:38:22;9.57;;;5.40;;
22634;SDS011;11484;50.858;4.384;2023-04-03T03:40:49;10.20;;;4.75;;
22634;SDS011;11484;50.858;4.384;2023-04-03T03:43:16;8.50;;;5.32;;
22634;SDS011;11484;50.858;4.384;2023-04-03T03:45:42;9.25;;;5.55;;
22634;SDS011;11484;50.858;4.384;2023-04-03T03:48:08;7.20;;;5.43;;
22634;SDS011;11484;50.858;4.384;2023-04-03T03:50:34;13.82;;;7.20;;
22634;SDS011;11484;50.858;4.384;2023-04-03T03:53:00;10.00;;;6.18;;
22634;SDS011;11484;50.858;4.384;2023-04-03T03:55:25;9.10;;;5.43;;
22634;SDS011;11484;50.858;4.384;2023-04-03T03:57:51;6.93;;;5.13;;
22634;SDS011;11484;50.858;4.384;2023-04-03T04:00:18;6.50;;;5.25;;
22634;SDS011;11484;50.858;4.384;2023-04-03T04:02:45;7.28;;;5.20;;
22634;SDS011;11484;50.858;4.384;2023-04-03T04:05:11;7.15;;;5.53;;
22634;SDS011;11484;50.858;4.384;2023-04-03T04:07:37;8.45;;;5.30;;
22634;SDS011;11484;50.858;4.384;2023-04-03T04:10:03;7.43;;;5.00;;
22634;SDS011;11484;50.858;4.384;2023-04-03T04:12:29;5.90;;;4.97;;
22634;SDS011;11484;50.858;4.384;2023-04-03T04:14:55;7.47;;;5.72;;
22634;SDS011;11484;50.858;4.384;2023-04-03T04:17:21;6.93;;;5.45;;
22634;SDS011;11484;50.858;4.384;2023-04-03T04:19:46;7.38;;;4.88;;
22634;SDS011;11484;50.858;4.384;2023-04-03T04:22:12;8.48;;;5.30;;
22634;SDS011;11484;50.858;4.384;2023-04-03T04:24:38;9.85;;;5.60;;
22634;SDS011;11484;50.858;4.384;2023-04-03T04:27:04;9.38;;;5.55;;
22634;SDS011;11484;50.858;4.384;2023-04-03T04:29:29;8.57;;;5.68;;
22634;SDS011;11484;50.858;4.384;2023-04-03T04:32:00;8.75;;;5.25;;
22634;SDS011;11484;50.858;4.384;2023-04-03T04:34:27;7.70;;;5.53;;
22634;SDS011;11484;50.858;4.384;2023-04-03T04:36:58;8.30;;;5.68;;
22634;SDS011;11484;50.858;4.384;2023-04-03T04:39:24;8.93;;;5.57;;
22634;SDS011;11484;50.858;4.384;2023-04-03T04:41:50;9.35;;;5.65;;
22634;SDS011;11484;50.858;4.384;2023-04-03T04:44:16;7.95;;;5.75;;
22634;SDS011;11484;50.858;4.384;2023-04-03T04:46:42;8.20;;;5.65;;
22634;SDS011;11484;50.858;4.384;2023-04-03T04:49:10;9.20;;;6.13;;
22634;SDS011;11484;50.858;4.384;2023-04-03T04:51:36;8.95;;;6.30;;
22634;SDS011;11484;50.858;4.384;2023-04-03T04:54:02;10.05;;;6.10;;
22634;SDS011;11484;50.858;4.384;2023-04-03T04:56:27;11.50;;;6.85;;
22634;SDS011;11484;50.858;4.384;2023-04-03T04:58:53;12.25;;;6.95;;
22634;SDS011;11484;50.858;4.384;2023-04-03T05:01:19;8.73;;;6.47;;
22634;SDS011;11484;50.858;4.384;2023-04-03T05:03:45;9.73;;;6.65;;
22634;SDS011;11484;50.858;4.384;2023-04-03T05:06:11;11.50;;;7.32;;
22634;SDS011;11484;50.858;4.384;2023-04-03T05:08:36;10.85;;;7.03;;
22634;SDS011;11484;50.858;4.384;2023-04-03T05:11:02;12.68;;;6.97;;
22634;SDS011;11484;50.858;4.384;2023-04-03T05:13:28;8.82;;;6.40;;
22634;SDS011;11484;50.858;4.384;2023-04-03T05:15:53;9.98;;;6.35;;
22634;SDS011;11484;50.858;4.384;2023-04-03T05:18:19;12.57;;;6.75;;
22634;SDS011;11484;50.858;4.384;2023-04-03T05:20:45;12.65;;;6.88;;
22634;SDS011;11484;50.858;4.384;2023-04-03T05:23:14;10.27;;;6.90;;
22634;SDS011;11484;50.858;4.384;2023-04-03T05:25:39;14.05;;;6.10;;
22634;SDS011;11484;50.858;4.384;2023-04-03T05:28:05;9.48;;;6.63;;
22634;SDS011;11484;50.858;4.384;2023-04-03T05:30:31;8.07;;;6.50;;
22634;SDS011;11484;50.858;4.384;2023-04-03T05:32:58;9.70;;;7.03;;
22634;SDS011;11484;50.858;4.384;2023-04-03T05:35:24;11.88;;;7.18;;
22634;SDS011;11484;50.858;4.384;2023-04-03T05:37:49;11.25;;;7.25;;
22634;SDS011;11484;50.858;4.384;2023-04-03T05:40:18;12.38;;;7.05;;
22634;SDS011;11484;50.858;4.384;2023-04-03T05:42:43;10.80;;;6.95;;
22634;SDS011;11484;50.858;4.384;2023-04-03T05:45:09;11.65;;;7.43;;
22634;SDS011;11484;50.858;4.384;2023-04-03T05:47:36;10.15;;;6.50;;
22634;SDS011;11484;50.858;4.384;2023-04-03T05:50:02;9.85;;;6.88;;
22634;SDS011;11484;50.858;4.384;2023-04-03T05:52:29;11.32;;;7.85;;
22634;SDS011;11484;50.858;4.384;2023-04-03T05:54:58;10.60;;;6.78;;
22634;SDS011;11484;50.858;4.384;2023-04-03T05:57:24;10.98;;;7.55;;
22634;SDS011;11484;50.858;4.384;2023-04-03T05:59:50;11.25;;;7.05;;
22634;SDS011;11484;50.858;4.384;2023-04-03T06:02:19;9.95;;;7.45;;
22634;SDS011;11484;50.858;4.384;2023-04-03T06:04:48;11.27;;;7.20;;
22634;SDS011;11484;50.858;4.384;2023-04-03T06:07:18;9.85;;;6.15;;
22634;SDS011;11484;50.858;4.384;2023-04-03T06:09:47;11.43;;;7.32;;
22634;SDS011;11484;50.858;4.384;2023-04-03T06:12:13;10.85;;;6.82;;
22634;SDS011;11484;50.858;4.384;2023-04-03T06:14:39;11.02;;;7.55;;
22634;SDS011;11484;50.858;4.384;2023-04-03T06:17:06;9.35;;;6.50;;
22634;SDS011;11484;50.858;4.384;2023-04-03T06:19:33;12.57;;;7.32;;
22634;SDS011;11484;50.858;4.384;2023-04-03T06:21:59;10.73;;;7.80;;
22634;SDS011;11484;50.858;4.384;2023-04-03T06:24:25;11.20;;;6.38;;
22634;SDS011;11484;50.858;4.384;2023-04-03T06:26:51;8.63;;;7.13;;
22634;SDS011;11484;50.858;4.384;2023-04-03T06:29:18;9.77;;;6.78;;
22634;SDS011;11484;50.858;4.384;2023-04-03T06:31:44;8.30;;;6.65;;
22634;SDS011;11484;50.858;4.384;2023-04-03T06:34:11;11.43;;;6.53;;
22634;SDS011;11484;50.858;4.384;2023-04-03T06:36:37;10.05;;;6.72;;
22634;SDS011;11484;50.858;4.384;2023-04-03T06:39:04;7.28;;;6.32;;
22634;SDS011;11484;50.858;4.384;2023-04-03T06:41:30;10.27;;;6.80;;
22634;SDS011;11484;50.858;4.384;2023-04-03T06:43:58;12.15;;;6.75;;
22634;SDS011;11484;50.858;4.384;2023-04-03T06:46:25;15.27;;;7.68;;
22634;SDS011;11484;50.858;4.384;2023-04-03T06:48:53;16.73;;;7.35;;
22634;SDS011;11484;50.858;4.384;2023-04-03T06:51:24;13.95;;;6.95;;
22634;SDS011;11484;50.858;4.384;2023-04-03T06:53:51;17.48;;;7.60;;
22634;SDS011;11484;50.858;4.384;2023-04-03T06:56:19;14.63;;;7.25;;
22634;SDS011;11484;50.858;4.384;2023-04-03T06:58:46;10.23;;;6.35;;
22634;SDS011;11484;50.858;4.384;2023-04-03T07:01:12;10.93;;;6.47;;
22634;SDS011;11484;50.858;4.384;2023-04-03T07:03:39;7.32;;;5.78;;
22634;SDS011;11484;50.858;4.384;2023-04-03T07:06:06;6.72;;;5.30;;
22634;SDS011;11484;50.858;4.384;2023-04-03T07:08:33;6.40;;;5.20;;
22634;SDS011;11484;50.858;4.384;2023-04-03T07:10:59;6.00;;;4.82;;
22634;SDS011;11484;50.858;4.384;2023-04-03T07:13:25;8.05;;;5.15;;
22634;SDS011;11484;50.858;4.384;2023-04-03T07:15:51;5.90;;;5.20;;
22634;SDS011;11484;50.858;4.384;2023-04-03T07:18:17;6.43;;;4.50;;
22634;SDS011;11484;50.858;4.384;2023-04-03T07:20:44;6.03;;;4.82;;
22634;SDS011;11484;50.858;4.384;2023-04-03T07:23:10;6.47;;;4.40;;
22634;SDS011;11484;50.858;4.384;2023-04-03T07:25:36;5.63;;;4.53;;
22634;SDS011;11484;50.858;4.384;2023-04-03T07:28:02;5.80;;;4.45;;
22634;SDS011;11484;50.858;4.384;2023-04-03T07:30:28;5.88;;;4.35;;
22634;SDS011;11484;50.858;4.384;2023-04-03T07:32:54;6.15;;;4.30;;
22634;SDS011;11484;50.858;4.384;2023-04-03T07:35:20;7.28;;;4.63;;
22634;SDS011;11484;50.858;4.384;2023-04-03T07:37:46;5.88;;;4.15;;
22634;SDS011;11484;50.858;4.384;2023-04-03T07:40:12;6.45;;;4.05;;
22634;SDS011;11484;50.858;4.384;2023-04-03T07:42:37;6.60;;;4.65;;
22634;SDS011;11484;50.858;4.384;2023-04-03T07:45:03;6.72;;;4.35;;
22634;SDS011;11484;50.858;4.384;2023-04-03T07:47:30;5.97;;;4.47;;
22634;SDS011;11484;50.858;4.384;2023-04-03T07:49:56;7.65;;;5.10;;
22634;SDS011;11484;50.858;4.384;2023-04-03T07:52:23;4.93;;;4.43;;
22634;SDS011;11484;50.858;4.384;2023-04-03T07:54:49;6.45;;;4.20;;
22634;SDS011;11484;50.858;4.384;2023-04-03T07:57:15;7.45;;;4.50;;
22634;SDS011;11484;50.858;4.384;2023-04-03T07:59:41;5.97;;;4.50;;
22634;SDS011;11484;50.858;4.384;2023-04-03T08:02:11;6.30;;;4.20;;
22634;SDS011;11484;50.858;4.384;2023-04-03T08:04:37;5.72;;;4.10;;
22634;SDS011;11484;50.858;4.384;2023-04-03T08:07:03;7.40;;;4.57;;
22634;SDS011;11484;50.858;4.384;2023-04-03T08:09:28;9.02;;;5.22;;
22634;SDS011;11484;50.858;4.384;2023-04-03T08:11:54;7.05;;;4.40;;
22634;SDS011;11484;50.858;4.384;2023-04-03T08:14:20;6.20;;;4.60;;
22634;SDS011;11484;50.858;4.384;2023-04-03T08:16:46;6.05;;;4.60;;
22634;SDS011;11484;50.858;4.384;2023-04-03T08:19:13;7.68;;;4.57;;
22634;SDS011;11484;50.858;4.384;2023-04-03T08:21:40;6.57;;;3.95;;
22634;SDS011;11484;50.858;4.384;2023-04-03T08:24:06;8.43;;;4.40;;
22634;SDS011;11484;50.858;4.384;2023-04-03T08:26:33;5.82;;;4.40;;
22634;SDS011;11484;50.858;4.384;2023-04-03T08:28:59;6.47;;;4.47;;
22634;SDS011;11484;50.858;4.384;2023-04-03T08:31:24;8.27;;;4.82;;
22634;SDS011;11484;50.858;4.384;2023-04-03T08:33:50;7.18;;;4.25;;
22634;SDS011;11484;50.858;4.384;2023-04-03T08:36:23;8.13;;;4.47;;
22634;SDS011;11484;50.858;4.384;2023-04-03T08:38:51;7.82;;;4.38;;
22634;SDS011;11484;50.858;4.384;2023-04-03T08:49:40;6.60;;;3.85;;
22634;SDS011;11484;50.858;4.384;2023-04-03T08:52:12;6.10;;;4.15;;
22634;SDS011;11484;50.858;4.384;2023-04-03T08:54:59;5.45;;;3.80;;
22634;SDS011;11484;50.858;4.384;2023-04-03T08:57:30;5.13;;;3.95;;
22634;SDS011;11484;50.858;4.384;2023-04-03T09:00:06;6.20;;;3.70;;
22634;SDS011;11484;50.858;4.384;2023-04-03T09:02:43;7.28;;;3.70;;
22634;SDS011;11484;50.858;4.384;2023-04-03T09:05:42;7.63;;;3.88;;
22634;SDS011;11484;50.858;4.384;2023-04-03T09:11:15;5.85;;;3.30;;
22634;SDS011;11484;50.858;4.384;2023-04-03T09:17:00;5.53;;;2.88;;
22634;SDS011;11484;50.858;4.384;2023-04-03T09:24:55;6.38;;;2.67;;
22634;SDS011;11484;50.858;4.384;2023-04-03T09:27:25;6.30;;;2.38;;
22634;SDS011;11484;50.858;4.384;2023-04-03T09:29:52;3.83;;;2.30;;
22634;SDS011;11484;50.858;4.384;2023-04-03T09:32:27;5.78;;;2.08;;
22634;SDS011;11484;50.858;4.384;2023-04-03T09:34:56;4.90;;;2.38;;
22634;SDS011;11484;50.858;4.384;2023-04-03T09:38:00;4.65;;;1.95;;
22634;SDS011;11484;50.858;4.384;2023-04-03T09:40:47;3.00;;;1.60;;
22634;SDS011;11484;50.858;4.384;2023-04-03T09:43:26;4.55;;;1.70;;
22634;SDS011;11484;50.858;4.384;2023-04-03T09:45:54;3.40;;;1.63;;
22634;SDS011;11484;50.858;4.384;2023-04-03T09:48:49;4.22;;;2.13;;
22634;SDS011;11484;50.858;4.384;2023-04-03T09:51:16;4.55;;;2.20;;
22634;SDS011;11484;50.858;4.384;2023-04-03T09:53:43;9.23;;;3.55;;
22634;SDS011;11484;50.858;4.384;2023-04-03T09:58:42;6.15;;;2.55;;
22634;SDS011;11484;50.858;4.384;2023-04-03T10:04:29;4.70;;;2.40;;
22634;SDS011;11484;50.858;4.384;2023-04-03T10:06:49;2.38;;;1.75;;
22634;SDS011;11484;50.858;4.384;2023-04-03T10:09:27;3.85;;;1.50;;
22634;SDS011;11484;50.858;4.384;2023-04-03T10:12:08;2.55;;;1.40;;
22634;SDS011;11484;50.858;4.384;2023-04-03T10:14:41;3.65;;;1.90;;
22634;SDS011;11484;50.858;4.384;2023-04-03T10:20:08;3.42;;;1.55;;
22634;SDS011;11484;50.858;4.384;2023-04-03T10:22:44;4.07;;;1.30;;
22634;SDS011;11484;50.858;4.384;2023-04-03T10:25:26;3.50;;;1.60;;
22634;SDS011;11484;50.858;4.384;2023-04-03T10:28:11;4.55;;;1.70;;
22634;SDS011;11484;50.858;4.384;2023-04-03T10:31:02;2.97;;;1.77;;
22634;SDS011;11484;50.858;4.384;2023-04-03T10:39:10;5.40;;;1.63;;
22634;SDS011;11484;50.858;4.384;2023-04-03T10:49:43;3.78;;;1.40;;
22634;SDS011;11484;50.858;4.384;2023-04-03T10:52:35;3.45;;;1.60;;
22634;SDS011;11484;50.858;4.384;2023-04-03T10:57:52;3.00;;;1.40;;
22634;SDS011;11484;50.858;4.384;2023-04-03T11:00:41;2.83;;;1.20;;
22634;SDS011;11484;50.858;4.384;2023-04-03T11:03:18;2.58;;;1.33;;
22634;SDS011;11484;50.858;4.384;2023-04-03T11:05:54;2.72;;;1.60;;
22634;SDS011;11484;50.858;4.384;2023-04-03T11:08:26;1.52;;;1.10;;
22634;SDS011;11484;50.858;4.384;2023-04-03T11:11:05;2.70;;;0.98;;
22634;SDS011;11484;50.858;4.384;2023-04-03T11:13:57;2.75;;;1.10;;
22634;SDS011;11484;50.858;4.384;2023-04-03T11:16:55;2.42;;;1.10;;
22634;SDS011;11484;50.858;4.384;2023-04-03T11:21:57;3.05;;;1.27;;
22634;SDS011;11484;50.858;4.384;2023-04-03T11:24:46;3.72;;;1.50;;
22634;SDS011;11484;50.858;4.384;2023-04-03T11:27:22;4.03;;;1.70;;
22634;SDS011;11484;50.858;4.384;2023-04-03T11:29:49;3.40;;;1.77;;
22634;SDS011;11484;50.858;4.384;2023-04-03T11:35:09;4.40;;;2.00;;
22634;SDS011;11484;50.858;4.384;2023-04-03T11:42:42;7.50;;;1.60;;
22634;SDS011;11484;50.858;4.384;2023-04-03T11:53:01;2.72;;;1.20;;
22634;SDS011;11484;50.858;4.384;2023-04-03T12:46:53;1.90;;;1.00;;
22634;SDS011;11484;50.858;4.384;2023-04-03T12:51:53;3.33;;;1.10;;
22634;SDS011;11484;50.858;4.384;2023-04-03T12:54:22;4.63;;;1.50;;
22634;SDS011;11484;50.858;4.384;2023-04-03T12:57:10;3.53;;;1.38;;
22634;SDS011;11484;50.858;4.384;2023-04-03T12:59:36;4.25;;;1.00;;
22634;SDS011;11484;50.858;4.384;2023-04-03T13:02:07;4.43;;;1.10;;
22634;SDS011;11484;50.858;4.384;2023-04-03T13:04:45;3.05;;;1.20;;
22634;SDS011;11484;50.858;4.384;2023-04-03T13:07:21;2.78;;;1.00;;
22634;SDS011;11484;50.858;4.384;2023-04-03T13:09:56;4.90;;;1.15;;
22634;SDS011;11484;50.858;4.384;2023-04-03T13:12:31;2.20;;;1.17;;
22634;SDS011;11484;50.858;4.384;2023-04-03T13:15:03;2.42;;;1.20;;
22634;SDS011;11484;50.858;4.384;2023-04-03T13:17:43;2.28;;;1.00;;
22634;SDS011;11484;50.858;4.384;2023-04-03T13:20:13;1.30;;;0.80;;
22634;SDS011;11484;50.858;4.384;2023-04-03T13:22:54;1.98;;;1.00;;
22634;SDS011;11484;50.858;4.384;2023-04-03T13:25:21;2.47;;;1.00;;
22634;SDS011;11484;50.858;4.384;2023-04-03T13:27:48;4.47;;;1.48;;
22634;SDS011;11484;50.858;4.384;2023-04-03T13:30:23;3.95;;;1.63;;
22634;SDS011;11484;50.858;4.384;2023-04-03T13:32:52;2.55;;;1.20;;
22634;SDS011;11484;50.858;4.384;2023-04-03T13:35:30;1.35;;;0.93;;
22634;SDS011;11484;50.858;4.384;2023-04-03T13:38:06;3.08;;;0.93;;
22634;SDS011;11484;50.858;4.384;2023-04-03T13:40:54;4.43;;;1.33;;
22634;SDS011;11484;50.858;4.384;2023-04-03T13:43:24;3.13;;;1.08;;
22634;SDS011;11484;50.858;4.384;2023-04-03T13:48:21;2.78;;;1.15;;
22634;SDS011;11484;50.858;4.384;2023-04-03T13:50:52;2.80;;;1.38;;
22634;SDS011;11484;50.858;4.384;2023-04-03T13:53:26;2.85;;;1.20;;
22634;SDS011;11484;50.858;4.384;2023-04-03T13:55:59;2.10;;;1.10;;
22634;SDS011;11484;50.858;4.384;2023-04-03T13:58:29;3.10;;;1.27;;
22634;SDS011;11484;50.858;4.384;2023-04-03T14:03:54;1.92;;;1.08;;
22634;SDS011;11484;50.858;4.384;2023-04-03T14:06:22;1.42;;;0.82;;
22634;SDS011;11484;50.858;4.384;2023-04-03T14:08:49;2.92;;;1.20;;
22634;SDS011;11484;50.858;4.384;2023-04-03T14:13:47;2.92;;;1.30;;
22634;SDS011;11484;50.858;4.384;2023-04-03T14:16:15;1.85;;;1.27;;
22634;SDS011;11484;50.858;4.384;2023-04-03T14:18:47;3.50;;;1.40;;
22634;SDS011;11484;50.858;4.384;2023-04-03T14:21:14;3.55;;;1.10;;
22634;SDS011;11484;50.858;4.384;2023-04-03T14:23:41;2.40;;;1.23;;
22634;SDS011;11484;50.858;4.384;2023-04-03T14:26:14;3.42;;;1.27;;
22634;SDS011;11484;50.858;4.384;2023-04-03T14:28:46;3.42;;;1.27;;
22634;SDS011;11484;50.858;4.384;2023-04-03T14:31:14;2.80;;;1.40;;
22634;SDS011;11484;50.858;4.384;2023-04-03T14:33:41;2.97;;;1.45;;
22634;SDS011;11484;50.858;4.384;2023-04-03T14:36:25;2.08;;;1.10;;
22634;SDS011;11484;50.858;4.384;2023-04-03T14:38:52;1.40;;;1.00;;
22634;SDS011;11484;50.858;4.384;2023-04-03T14:41:20;3.53;;;1.20;;
22634;SDS011;11484;50.858;4.384;2023-04-03T14:43:48;3.90;;;1.20;;
22634;SDS011;11484;50.858;4.384;2023-04-03T14:46:20;2.70;;;1.20;;
22634;SDS011;11484;50.858;4.384;2023-04-03T14:48:55;1.65;;;1.00;;
22634;SDS011;11484;50.858;4.384;2023-04-03T14:51:21;2.60;;;1.13;;
22634;SDS011;11484;50.858;4.384;2023-04-03T14:53:47;2.25;;;1.10;;
22634;SDS011;11484;50.858;4.384;2023-04-03T14:56:15;3.13;;;1.05;;
22634;SDS011;11484;50.858;4.384;2023-04-03T14:58:43;4.13;;;1.40;;
22634;SDS011;11484;50.858;4.384;2023-04-03T15:01:13;1.90;;;1.10;;
22634;SDS011;11484;50.858;4.384;2023-04-03T15:03:39;2.88;;;1.17;;
22634;SDS011;11484;50.858;4.384;2023-04-03T15:06:05;1.15;;;0.95;;
22634;SDS011;11484;50.858;4.384;2023-04-03T15:08:31;1.88;;;1.00;;
22634;SDS011;11484;50.858;4.384;2023-04-03T15:10:57;3.22;;;1.15;;
22634;SDS011;11484;50.858;4.384;2023-04-03T15:13:23;3.28;;;1.05;;
22634;SDS011;11484;50.858;4.384;2023-04-03T15:15:50;1.73;;;0.90;;
22634;SDS011;11484;50.858;4.384;2023-04-03T15:18:18;2.13;;;1.15;;
22634;SDS011;11484;50.858;4.384;2023-04-03T15:20:46;3.88;;;1.65;;
22634;SDS011;11484;50.858;4.384;2023-04-03T15:23:13;1.42;;;0.90;;
22634;SDS011;11484;50.858;4.384;2023-04-03T15:25:41;1.98;;;0.90;;
22634;SDS011;11484;50.858;4.384;2023-04-03T15:28:18;2.25;;;1.17;;
22634;SDS011;11484;50.858;4.384;2023-04-03T15:30:47;2.70;;;1.02;;
22634;SDS011;11484;50.858;4.384;2023-04-03T15:33:13;1.85;;;0.90;;
22634;SDS011;11484;50.858;4.384;2023-04-03T15:35:40;1.52;;;0.82;;
22634;SDS011;11484;50.858;4.384;2023-04-03T15:38:06;2.40;;;0.90;;
22634;SDS011;11484;50.858;4.384;2023-04-03T15:40:33;1.67;;;1.00;;
22634;SDS011;11484;50.858;4.384;2023-04-03T15:42:58;3.05;;;1.35;;
22634;SDS011;11484;50.858;4.384;2023-04-03T15:45:24;1.90;;;1.05;;
22634;SDS011;11484;50.858;4.384;2023-04-03T15:47:50;2.05;;;1.10;;
22634;SDS011;11484;50.858;4.384;2023-04-03T15:50:16;2.60;;;1.13;;
22634;SDS011;11484;50.858;4.384;2023-04-03T15:52:42;3.38;;;1.33;;
22634;SDS011;11484;50.858;4.384;2023-04-03T15:55:07;2.65;;;1.10;;
22634;SDS011;11484;50.858;4.384;2023-04-03T15:57:33;3.47;;;1.40;;
22634;SDS011;11484;50.858;4.384;2023-04-03T15:59:59;2.53;;;1.20;;
22634;SDS011;11484;50.858;4.384;2023-04-03T16:02:25;1.83;;;1.23;;
22634;SDS011;11484;50.858;4.384;2023-04-03T16:04:53;3.75;;;1.30;;
22634;SDS011;11484;50.858;4.384;2023-04-03T16:07:19;2.15;;;1.17;;
22634;SDS011;11484;50.858;4.384;2023-04-03T16:09:45;2.20;;;1.17;;
22634;SDS011;11484;50.858;4.384;2023-04-03T16:12:11;1.65;;;1.10;;
22634;SDS011;11484;50.858;4.384;2023-04-03T16:14:37;3.03;;;1.35;;
22634;SDS011;11484;50.858;4.384;2023-04-03T16:17:02;2.08;;;1.20;;
22634;SDS011;11484;50.858;4.384;2023-04-03T16:19:28;2.08;;;1.40;;
22634;SDS011;11484;50.858;4.384;2023-04-03T16:21:55;2.85;;;1.40;;
22634;SDS011;11484;50.858;4.384;2023-04-03T16:24:21;3.28;;;1.40;;
22634;SDS011;11484;50.858;4.384;2023-04-03T16:26:47;3.53;;;1.63;;
22634;SDS011;11484;50.858;4.384;2023-04-03T16:29:13;3.10;;;1.55;;
22634;SDS011;11484;50.858;4.384;2023-04-03T16:31:39;4.45;;;1.38;;
22634;SDS011;11484;50.858;4.384;2023-04-03T16:34:05;2.35;;;1.25;;
22634;SDS011;11484;50.858;4.384;2023-04-03T16:36:30;2.95;;;1.52;;
22634;SDS011;11484;50.858;4.384;2023-04-03T16:38:56;3.80;;;1.52;;
22634;SDS011;11484;50.858;4.384;2023-04-03T16:41:22;3.28;;;1.40;;
22634;SDS011;11484;50.858;4.384;2023-04-03T16:43:47;2.42;;;1.45;;
22634;SDS011;11484;50.858;4.384;2023-04-03T16:46:14;1.98;;;1.40;;
22634;SDS011;11484;50.858;4.384;2023-04-03T16:48:40;3.22;;;1.50;;
22634;SDS011;11484;50.858;4.384;2023-04-03T16:51:06;1.70;;;1.25;;
22634;SDS011;11484;50.858;4.384;2023-04-03T16:53:31;3.28;;;1.73;;
22634;SDS011;11484;50.858;4.384;2023-04-03T16:55:58;2.92;;;1.40;;
22634;SDS011;11484;50.858;4.384;2023-04-03T16:58:23;3.50;;;1.50;;
22634;SDS011;11484;50.858;4.384;2023-04-03T17:00:49;4.05;;;1.65;;
22634;SDS011;11484;50.858;4.384;2023-04-03T17:03:15;2.58;;;1.35;;
22634;SDS011;11484;50.858;4.384;2023-04-03T17:05:41;4.13;;;1.27;;
22634;SDS011;11484;50.858;4.384;2023-04-03T17:08:08;2.85;;;1.20;;